createdAt,value
2022-08-11T00:02:03.473Z,1.90
2022-08-11T00:07:06.766Z,1.95
2022-08-11T00:12:16.472Z,1.92
2022-08-11T00:17:18.463Z,2.03
2022-08-11T00:22:21.754Z,2.17
2022-08-11T00:27:36.465Z,2.07
2022-08-11T00:32:40.110Z,1.97
2022-08-11T00:37:46.229Z,2.00
2022-08-11T00:43:19.833Z,2.20
2022-08-11T00:48:30.016Z,2.03
2022-08-11T00:53:39.238Z,2.00
2022-08-11T00:59:01.287Z,1.87
2022-08-11T01:04:17.481Z,2.10
2022-08-11T01:09:54.551Z,2.10
2022-08-11T01:15:24.151Z,2.23
2022-08-11T01:20:50.401Z,2.10
2022-08-11T01:26:16.135Z,2.00
2022-08-11T01:31:35.998Z,2.00
2022-08-11T01:37:02.737Z,1.90
2022-08-11T01:42:44.086Z,2.10
2022-08-11T01:48:11.152Z,2.17
2022-08-11T01:53:39.976Z,1.87
2022-08-11T01:58:54.083Z,2.00
2022-08-11T02:03:55.641Z,2.10
2022-08-11T02:09:20.622Z,2.20
2022-08-11T02:14:34.555Z,1.90
2022-08-11T02:20:13.762Z,1.90
2022-08-11T02:26:01.598Z,1.90
2022-08-11T02:32:24.343Z,2.00
2022-08-11T02:37:15.217Z,2.07
2022-08-11T02:42:51.632Z,2.20
2022-08-11T02:48:43.165Z,1.90
2022-08-11T02:53:54.465Z,2.37
2022-08-11T02:59:24.998Z,2.20
2022-08-11T03:04:57.564Z,2.07
2022-08-11T03:10:03.955Z,2.50
2022-08-11T03:15:38.648Z,2.13
2022-08-11T03:21:09.551Z,2.13
2022-08-11T03:26:26.730Z,2.30
2022-08-11T03:31:55.942Z,2.00
2022-08-11T03:37:44.297Z,2.30
2022-08-11T03:42:59.738Z,1.97
2022-08-11T03:48:15.374Z,2.10
2022-08-11T03:53:29.532Z,2.20
2022-08-11T03:58:46.127Z,2.43
2022-08-11T04:04:09.267Z,2.00
2022-08-11T04:09:48.629Z,2.23
2022-08-11T04:15:36.766Z,2.40
2022-08-11T04:21:05.951Z,2.20
2022-08-11T04:26:51.467Z,2.67
2022-08-11T04:32:43.258Z,2.20
2022-08-11T04:37:53.826Z,2.60
2022-08-11T04:43:23.531Z,2.47
2022-08-11T04:49:25.828Z,2.47
2022-08-11T04:55:22.400Z,2.43
2022-08-11T05:00:49.194Z,2.50
2022-08-11T05:06:06.406Z,3.20
2022-08-11T05:11:33.082Z,2.57
2022-08-11T05:17:02.026Z,2.40
2022-08-11T05:22:26.127Z,2.73
2022-08-11T05:27:52.689Z,2.30
2022-08-11T05:33:35.918Z,2.23
2022-08-11T05:38:56.679Z,2.40
2022-08-11T05:44:20.711Z,2.37
2022-08-11T05:49:42.935Z,2.20
2022-08-11T05:55:07.007Z,2.43
2022-08-11T06:00:10.303Z,2.10
2022-08-11T06:05:12.654Z,2.75
2022-08-11T06:10:15.018Z,2.15
2022-08-11T06:15:16.729Z,2.13
2022-08-11T06:20:19.559Z,2.08
2022-08-11T06:25:21.611Z,2.50
2022-08-11T06:30:35.362Z,2.22
2022-08-11T06:35:51.942Z,2.00
2022-08-11T06:41:14.002Z,2.13
2022-08-11T06:46:28.205Z,2.10
2022-08-11T06:51:32.525Z,2.13
2022-08-11T06:57:26.396Z,2.10
2022-08-11T07:02:31.189Z,2.30
2022-08-11T07:08:34.586Z,2.25
2022-08-11T07:13:57.867Z,2.28
2022-08-11T07:19:25.149Z,2.20
2022-08-11T07:24:59.191Z,2.00
2022-08-11T07:30:08.551Z,2.47
2022-08-11T07:35:17.188Z,2.03
2022-08-11T07:40:23.253Z,2.13
2022-08-11T07:45:44.276Z,2.20
2022-08-11T07:51:05.586Z,2.10
2022-08-11T07:56:07.839Z,1.92
2022-08-11T08:01:32.186Z,2.00
2022-08-11T08:06:52.642Z,2.08
2022-08-11T08:12:13.897Z,2.20
2022-08-11T08:17:35.361Z,2.05
2022-08-11T08:22:39.503Z,2.05
2022-08-11T08:27:43.624Z,1.90
2022-08-11T08:32:45.375Z,2.00
2022-08-11T08:37:47.824Z,2.67
2022-08-11T08:42:54.956Z,2.30
2022-08-11T08:48:09.387Z,1.90
2022-08-11T08:53:11.187Z,1.95
2022-08-11T08:58:13.503Z,1.80
2022-08-11T09:03:40.008Z,1.80
2022-08-11T09:08:36.943Z,1.95
2022-08-11T09:13:44.193Z,1.42
2022-08-11T09:18:45.811Z,1.73
2022-08-11T09:24:10.121Z,1.70
2022-08-11T09:29:16.749Z,1.45
2022-08-11T09:34:18.386Z,1.40
2022-08-11T09:39:38.619Z,1.77
2022-08-11T09:44:48.727Z,1.55
2022-08-11T09:49:53.199Z,1.80
2022-08-11T09:54:54.733Z,1.63
2022-08-11T10:00:12.602Z,2.22
2022-08-11T10:05:36.736Z,1.88
2022-08-11T10:10:39.193Z,2.10
2022-08-11T10:16:00.000Z,2.08
2022-08-11T10:21:12.066Z,1.75
2022-08-11T10:26:34.747Z,1.73
2022-08-11T10:31:57.772Z,1.90
2022-08-11T10:37:03.045Z,2.08
2022-08-11T10:42:41.382Z,2.00
2022-08-11T10:47:49.588Z,2.10
2022-08-11T10:53:10.114Z,2.03
2022-08-11T10:58:30.853Z,1.90
2022-08-11T11:03:35.255Z,2.13
2022-08-11T11:08:57.667Z,2.00
2022-08-11T11:14:21.780Z,2.00
2022-08-11T11:19:29.965Z,2.00
2022-08-11T11:24:58.860Z,2.05
2022-08-11T11:30:08.627Z,2.22
2022-08-11T11:35:15.992Z,1.90
2022-08-11T11:40:22.564Z,2.10
2022-08-11T11:45:33.343Z,1.90
2022-08-11T11:50:37.109Z,1.83
2022-08-11T11:55:38.819Z,1.98
2022-08-11T12:00:59.733Z,1.80
2022-08-11T12:06:02.587Z,2.40
2022-08-11T12:11:26.067Z,2.10
2022-08-11T12:16:33.793Z,2.00
2022-08-11T12:21:37.264Z,2.13
2022-08-11T12:27:16.391Z,1.98
2022-08-11T12:32:20.277Z,2.05
2022-08-11T12:37:24.802Z,1.70
2022-08-11T12:42:55.411Z,1.90
2022-08-11T12:48:58.383Z,1.90
2022-08-11T12:53:58.777Z,2.00
2022-08-11T12:59:20.522Z,1.95
2022-08-11T13:04:40.667Z,2.00
2022-08-11T13:09:43.534Z,2.13
2022-08-11T13:14:45.173Z,1.88
2022-08-11T13:19:49.617Z,2.10
2022-08-11T13:24:55.271Z,2.03
2022-08-11T13:30:15.823Z,1.77
2022-08-11T13:35:17.902Z,2.05
2022-08-11T13:40:33.139Z,2.03
2022-08-11T13:45:44.185Z,1.90
2022-08-11T13:51:04.581Z,2.15
2022-08-11T13:56:06.578Z,2.00
2022-08-11T14:02:03.074Z,2.35
2022-08-11T14:06:30.671Z,2.10
2022-08-11T14:12:20.385Z,1.80
2022-08-11T14:17:13.894Z,1.92
2022-08-11T14:22:35.854Z,1.90
2022-08-11T14:28:27.365Z,1.95
2022-08-11T14:32:59.831Z,2.00
2022-08-11T14:38:03.738Z,1.95
2022-08-11T14:44:12.659Z,2.20
2022-08-11T14:48:47.283Z,1.90
2022-08-11T14:54:09.338Z,2.15
2022-08-11T14:59:12.532Z,1.65
2022-08-11T15:04:36.662Z,2.00
2022-08-11T15:09:38.837Z,1.67
2022-08-11T15:15:10.963Z,1.85
2022-08-11T15:20:34.651Z,1.80
2022-08-11T15:25:36.806Z,1.90
2022-08-11T15:30:57.407Z,1.70
2022-08-11T15:36:19.786Z,2.10
2022-08-11T15:41:40.769Z,2.13
2022-08-11T15:46:45.770Z,1.83
2022-08-11T15:51:59.294Z,1.73
2022-08-11T15:57:05.547Z,1.90
2022-08-11T16:02:31.686Z,1.85
2022-08-11T16:07:40.389Z,2.00
2022-08-11T16:13:20.710Z,1.95
2022-08-11T16:18:40.475Z,1.85
2022-08-11T16:23:45.013Z,2.20
2022-08-11T16:28:46.703Z,1.95
2022-08-11T16:33:51.645Z,1.90
2022-08-11T16:38:55.200Z,2.00
2022-08-11T16:44:15.762Z,2.20
2022-08-11T16:49:34.650Z,1.90
2022-08-11T16:54:36.852Z,1.85
2022-08-11T16:59:39.058Z,2.08
2022-08-11T17:05:05.777Z,2.03
2022-08-11T17:10:51.541Z,2.05
2022-08-11T17:16:07.065Z,1.80
2022-08-11T17:21:30.189Z,2.10
2022-08-11T17:26:58.877Z,1.92
2022-08-11T17:32:22.523Z,1.90
2022-08-11T17:37:25.173Z,1.90
2022-08-11T17:42:47.829Z,2.03
2022-08-11T17:48:08.324Z,1.60
2022-08-11T17:53:30.065Z,1.83
2022-08-11T17:58:50.903Z,2.05
2022-08-11T18:03:53.219Z,2.08
2022-08-11T18:09:20.070Z,2.05
2022-08-11T18:14:41.441Z,2.13
2022-08-11T18:20:01.928Z,2.13
2022-08-11T18:25:28.194Z,2.10
2022-08-11T18:30:52.314Z,1.90
2022-08-11T18:36:24.229Z,2.22
2022-08-11T18:41:46.106Z,2.35
2022-08-11T18:47:09.100Z,1.95
2022-08-11T18:52:30.208Z,2.50
2022-08-11T18:57:53.894Z,2.17
2022-08-11T19:03:15.267Z,2.20
2022-08-11T19:08:37.568Z,2.28
2022-08-11T19:13:58.233Z,2.40
2022-08-11T19:19:19.635Z,2.30
2022-08-11T19:24:41.362Z,2.40
2022-08-11T19:30:12.251Z,2.33
2022-08-11T19:35:34.607Z,2.78
2022-08-11T19:40:56.861Z,2.13
2022-08-11T19:46:19.614Z,2.80
2022-08-11T19:51:40.149Z,2.70
2022-08-11T19:57:01.669Z,2.63
2022-08-11T20:02:24.328Z,2.47
2022-08-11T20:07:45.044Z,2.58
2022-08-11T20:13:05.526Z,2.75
2022-08-11T20:18:29.511Z,2.53
2022-08-11T20:23:50.300Z,2.50
2022-08-11T20:29:11.237Z,2.50
2022-08-11T20:34:33.190Z,2.47
2022-08-11T20:39:54.122Z,2.53
2022-08-11T20:45:16.034Z,2.67
2022-08-11T20:50:40.183Z,2.45
2022-08-11T20:56:00.669Z,2.60
2022-08-11T21:01:38.387Z,2.28
2022-08-11T21:07:02.779Z,2.53
2022-08-11T21:12:23.791Z,2.50
2022-08-11T21:18:06.263Z,2.55
2022-08-11T21:23:29.066Z,2.30
2022-08-11T21:28:50.753Z,3.47
2022-08-11T21:34:11.600Z,2.90
2022-08-11T21:39:36.467Z,2.80
2022-08-11T21:44:57.192Z,2.33
2022-08-11T21:50:16.976Z,2.47
2022-08-11T21:55:37.290Z,2.72
2022-08-11T22:00:57.361Z,2.45
2022-08-11T22:06:18.413Z,2.65
2022-08-11T22:11:41.653Z,2.45
2022-08-11T22:17:02.099Z,2.45
2022-08-11T22:22:25.631Z,2.60
2022-08-11T22:27:46.537Z,2.70
2022-08-11T22:33:07.491Z,2.38
2022-08-11T22:38:27.935Z,2.60
2022-08-11T22:43:48.275Z,2.80
2022-08-11T22:49:08.457Z,2.50
2022-08-11T22:54:28.834Z,2.60
2022-08-11T22:59:49.113Z,2.60
2022-08-11T23:05:09.649Z,2.50
2022-08-11T23:10:30.203Z,2.60
2022-08-11T23:15:50.763Z,3.15
2022-08-11T23:21:11.666Z,2.90
2022-08-11T23:26:32.828Z,2.60
2022-08-11T23:31:54.488Z,2.70
2022-08-11T23:37:14.576Z,2.70
2022-08-11T23:42:36.188Z,2.77
2022-08-11T23:47:57.814Z,2.63
2022-08-11T23:53:18.266Z,2.87
2022-08-11T23:58:38.627Z,2.80
